Time;durP1;ratioP1;P1;durP2;ratioP2;P2;SDS_P1;SDS_P2;PMS_P1;PMS_P2;Temp;Humidity;BMP_temperature;BMP_pressure;BME280_temperature;BME280_humidity;BME280_pressure;Samples;Min_cycle;Max_cycle;Signal;HPM_P1;HPM_P2
2022/05/09 00:00:07;;;;;;;10.50;7.88;;;21.40;59.40;;;;;;5047094;28;20025;-81
2022/05/09 00:02:33;;;;;;;12.05;7.57;;;21.20;60.20;;;;;;5051393;28;20044;-81
2022/05/09 00:04:58;;;;;;;11.52;7.70;;;21.40;59.90;;;;;;5052062;28;20029;-79
2022/05/09 00:07:24;;;;;;;12.80;7.13;;;21.30;59.90;;;;;;5034681;28;20513;-79
2022/05/09 00:09:50;;;;;;;9.98;7.63;;;21.40;59.80;;;;;;5051793;28;20029;-80
2022/05/09 00:12:16;;;;;;;11.27;7.85;;;21.30;59.90;;;;;;5049104;28;20052;-80
2022/05/09 00:14:42;;;;;;;9.25;7.90;;;21.30;59.70;;;;;;5033961;28;20115;-79
2022/05/09 00:17:08;;;;;;;9.07;7.30;;;21.20;59.60;;;;;;5053085;28;20036;-79
2022/05/09 00:19:35;;;;;;;11.10;7.60;;;21.00;60.20;;;;;;5032283;28;20060;-79
2022/05/09 00:22:01;;;;;;;10.48;7.95;;;20.90;60.30;;;;;;5052563;28;20021;-79
2022/05/09 00:24:27;;;;;;;12.32;7.68;;;21.00;60.10;;;;;;5049438;28;20040;-80
2022/05/09 00:26:53;;;;;;;10.52;7.40;;;21.10;59.90;;;;;;5052378;28;20032;-91
2022/05/09 00:29:23;;;;;;;12.27;7.70;;;21.10;60.10;;;;;;5052377;28;20017;-80
2022/05/09 00:31:53;;;;;;;10.13;7.60;;;21.10;60.10;;;;;;5051120;28;20036;-79
2022/05/09 00:34:21;;;;;;;12.37;8.13;;;21.00;60.10;;;;;;5051275;28;20104;-78
2022/05/09 00:36:48;;;;;;;13.15;7.70;;;20.90;60.50;;;;;;5052513;28;20422;-83
2022/05/09 00:39:15;;;;;;;12.68;8.23;;;20.70;60.70;;;;;;5051612;28;20025;-84
2022/05/09 00:41:42;;;;;;;10.23;7.95;;;20.50;60.80;;;;;;5050196;28;20036;-79
2022/05/09 00:44:14;;;;;;;9.90;7.20;;;20.70;60.50;;;;;;5051355;28;20029;-79
2022/05/09 00:46:45;;;;;;;9.15;7.40;;;20.90;60.00;;;;;;5052995;28;20493;-79
2022/05/09 00:49:23;;;;;;;11.88;8.18;;;20.70;60.20;;;;;;5051819;28;20053;-79
2022/05/09 00:52:01;;;;;;;10.18;7.88;;;20.80;59.80;;;;;;5034736;28;20033;-79
2022/05/09 00:54:30;;;;;;;10.70;8.45;;;21.00;59.50;;;;;;5026903;28;20399;-80
2022/05/09 00:57:07;;;;;;;9.60;7.75;;;21.00;59.80;;;;;;5055007;28;20112;-79
2022/05/09 00:59:35;;;;;;;9.70;7.63;;;21.10;59.50;;;;;;5038295;28;20056;-79
2022/05/09 01:02:01;;;;;;;9.25;7.53;;;21.20;59.30;;;;;;5055909;28;20029;-78
2022/05/09 01:04:30;;;;;;;15.05;8.90;;;21.30;58.80;;;;;;5053520;28;20025;-79
2022/05/09 01:06:57;;;;;;;10.38;7.90;;;21.30;58.80;;;;;;5037692;28;20039;-79
2022/05/09 01:09:23;;;;;;;10.00;7.25;;;21.30;58.90;;;;;;5036168;28;20025;-86
2022/05/09 01:11:49;;;;;;;10.57;8.10;;;21.20;58.30;;;;;;5054240;28;20079;-79
2022/05/09 01:14:28;;;;;;;9.90;7.00;;;21.10;58.60;;;;;;5054722;28;20048;-78
2022/05/09 01:16:55;;;;;;;12.68;7.97;;;21.10;58.20;;;;;;5055840;28;20476;-78
2022/05/09 01:19:29;;;;;;;11.85;8.55;;;20.90;58.60;;;;;;5037269;28;20534;-80
2022/05/09 01:21:56;;;;;;;9.63;7.72;;;21.00;58.70;;;;;;5038113;28;20025;-85
2022/05/09 01:24:23;;;;;;;10.35;7.55;;;20.80;59.60;;;;;;5053995;28;20085;-79
2022/05/09 01:26:50;;;;;;;12.05;8.27;;;20.80;59.30;;;;;;5035180;28;20029;-82
2022/05/09 01:29:51;;;;;;;12.07;8.32;;;21.00;58.70;;;;;;5054655;28;20033;-79
2022/05/09 01:32:52;;;;;;;9.93;7.80;;;21.00;58.40;;;;;;5051311;28;20102;-80
2022/05/09 01:35:24;;;;;;;10.18;7.20;;;21.00;58.70;;;;;;4972275;28;20474;-77
2022/05/09 01:37:54;;;;;;;12.85;7.40;;;21.10;58.40;;;;;;4973931;28;20074;-81
2022/05/09 01:40:20;;;;;;;8.40;7.13;;;21.00;58.60;;;;;;4957865;28;20154;-85
2022/05/09 01:42:46;;;;;;;9.90;7.22;;;20.70;59.50;;;;;;4970739;28;20035;-79
2022/05/09 01:45:13;;;;;;;11.45;8.35;;;20.70;59.30;;;;;;4970642;28;20030;-79
2022/05/09 01:50:24;;;;;;;12.95;7.90;;;20.60;59.30;;;;;;4974034;28;20581;-79
2022/05/09 01:52:50;;;;;;;11.02;8.68;;;20.40;59.70;;;;;;4957880;28;20062;-82
2022/05/09 01:55:16;;;;;;;10.07;8.48;;;20.40;59.50;;;;;;4953865;28;20028;-79
2022/05/09 01:57:42;;;;;;;11.02;7.90;;;20.60;59.60;;;;;;4941362;28;20504;-78
2022/05/09 02:00:09;;;;;;;10.50;7.55;;;20.60;59.60;;;;;;4969510;28;20078;-79
2022/05/09 02:02:35;;;;;;;10.52;7.68;;;20.70;59.30;;;;;;4970762;28;20074;-78
2022/05/09 02:05:02;;;;;;;10.00;7.18;;;20.80;59.10;;;;;;4967295;28;20035;-78
2022/05/09 02:07:27;;;;;;;12.18;8.40;;;20.90;58.80;;;;;;4973791;28;20023;-78
2022/05/09 02:09:53;;;;;;;10.98;8.32;;;20.90;58.20;;;;;;4980204;28;20046;-78
2022/05/09 02:12:20;;;;;;;9.82;7.50;;;20.50;58.90;;;;;;5037161;28;20128;-79
2022/05/09 02:14:46;;;;;;;8.90;7.65;;;20.30;59.70;;;;;;5045414;28;20017;-77
2022/05/09 02:17:13;;;;;;;11.63;7.95;;;20.20;60.00;;;;;;5055092;28;20099;-78
2022/05/09 02:19:40;;;;;;;9.45;7.13;;;20.30;60.00;;;;;;5034565;28;20029;-81
2022/05/09 02:22:06;;;;;;;10.82;7.68;;;20.30;60.30;;;;;;5053485;28;20025;-77
2022/05/09 02:24:32;;;;;;;13.48;8.25;;;20.30;60.20;;;;;;5033802;28;20033;-77
2022/05/09 02:26:58;;;;;;;11.80;8.18;;;20.20;60.30;;;;;;5053391;28;20025;-77
2022/05/09 02:29:25;;;;;;;15.20;8.23;;;20.10;60.40;;;;;;5050853;28;20388;-80
2022/05/09 02:31:51;;;;;;;12.88;8.50;;;20.00;60.20;;;;;;5054104;28;20037;-77
2022/05/09 02:34:17;;;;;;;11.30;7.88;;;20.00;60.20;;;;;;5052257;28;20027;-76
2022/05/09 02:36:42;;;;;;;11.00;8.05;;;20.10;60.20;;;;;;5035551;28;20419;-77
2022/05/09 02:39:08;;;;;;;11.80;8.30;;;20.20;60.20;;;;;;5052752;28;20025;-77
2022/05/09 02:41:34;;;;;;;9.75;7.78;;;20.40;60.00;;;;;;5036121;28;20029;-77
2022/05/09 02:44:00;;;;;;;10.32;8.40;;;20.60;59.70;;;;;;5035085;28;20021;-77
2022/05/09 02:46:27;;;;;;;11.55;7.80;;;20.20;60.50;;;;;;5047369;28;20037;-77
2022/05/09 02:48:52;;;;;;;10.43;7.95;;;20.40;60.00;;;;;;5053151;28;20048;-80
2022/05/09 02:51:18;;;;;;;11.13;7.53;;;20.40;60.10;;;;;;5053698;28;20033;-80
2022/05/09 02:53:44;;;;;;;10.50;8.23;;;20.30;60.10;;;;;;5052659;28;20107;-77
2022/05/09 02:56:10;;;;;;;11.80;8.10;;;20.40;60.00;;;;;;5035007;28;20510;-80
2022/05/09 02:58:36;;;;;;;11.98;8.70;;;20.40;60.00;;;;;;5038001;28;20057;-76
2022/05/09 03:01:03;;;;;;;19.33;10.48;;;20.60;59.80;;;;;;5035252;28;20436;-76
2022/05/09 03:06:14;;;;;;;9.88;7.90;;;20.20;59.40;;;;;;5052870;28;20036;-77
2022/05/09 03:08:40;;;;;;;10.60;7.38;;;20.00;59.90;;;;;;5052719;28;20578;-77
2022/05/09 03:11:06;;;;;;;10.60;7.60;;;19.90;60.30;;;;;;5051893;28;20041;-76
2022/05/09 03:13:31;;;;;;;11.00;7.72;;;20.00;60.30;;;;;;5052369;28;20032;-76
2022/05/09 03:16:01;;;;;;;11.00;8.75;;;20.10;60.70;;;;;;5050482;28;20036;-76
2022/05/09 03:18:27;;;;;;;15.87;9.27;;;20.00;60.80;;;;;;5034663;28;20476;-77
2022/05/09 03:20:53;;;;;;;12.15;8.50;;;20.00;60.30;;;;;;5052380;28;20284;-82
2022/05/09 03:23:20;;;;;;;12.40;7.82;;;20.10;60.00;;;;;;5052278;28;20029;-76
2022/05/09 03:25:46;;;;;;;10.27;7.18;;;20.30;60.00;;;;;;5050909;28;20071;-76
2022/05/09 03:28:16;;;;;;;15.35;9.95;;;20.30;59.30;;;;;;5052006;28;20379;-76
2022/05/09 03:30:43;;;;;;;14.23;9.15;;;20.20;59.50;;;;;;5050989;28;20039;-76
2022/05/09 03:33:09;;;;;;;9.82;7.45;;;19.90;60.10;;;;;;5052222;28;20460;-76
2022/05/09 03:35:35;;;;;;;10.18;7.43;;;19.90;60.40;;;;;;5033841;28;20037;-80
2022/05/09 03:38:00;;;;;;;11.27;8.50;;;19.60;61.20;;;;;;5051959;28;20375;-76
2022/05/09 03:40:26;;;;;;;11.55;7.95;;;19.50;61.60;;;;;;5044895;28;20044;-73
2022/05/09 03:42:51;;;;;;;9.85;7.82;;;19.70;61.60;;;;;;5035003;28;20028;-75
2022/05/09 03:45:17;;;;;;;11.70;8.18;;;19.80;61.30;;;;;;5050903;28;20025;-74
2022/05/09 03:47:43;;;;;;;12.45;8.57;;;19.90;61.10;;;;;;5051683;28;20025;-74
2022/05/09 03:50:11;;;;;;;11.25;8.27;;;20.10;60.50;;;;;;5051332;28;20507;-75
2022/05/09 03:52:37;;;;;;;14.75;8.30;;;20.30;60.70;;;;;;5053439;28;20043;-75
2022/05/09 03:55:04;;;;;;;11.25;7.53;;;20.50;60.70;;;;;;5050275;28;20029;-77
2022/05/09 03:57:29;;;;;;;11.30;8.75;;;20.30;60.60;;;;;;5032938;28;20031;-74
2022/05/09 03:59:55;;;;;;;10.88;8.27;;;20.30;60.90;;;;;;5052611;28;20104;-74
2022/05/09 04:02:21;;;;;;;10.93;8.20;;;19.90;62.10;;;;;;5051947;28;20444;-75
2022/05/09 04:04:47;;;;;;;9.80;7.93;;;20.10;61.70;;;;;;5051723;28;20021;-75
2022/05/09 04:07:12;;;;;;;9.02;7.38;;;20.30;61.60;;;;;;5032232;28;20033;-73
2022/05/09 04:09:38;;;;;;;9.65;7.80;;;20.40;61.10;;;;;;5051802;28;20407;-74
2022/05/09 04:12:04;;;;;;;9.73;7.43;;;20.60;60.80;;;;;;5034451;28;20033;-74
2022/05/09 04:17:16;;;;;;;11.13;7.68;;;20.70;60.80;;;;;;5050392;28;20051;-78
2022/05/09 04:19:42;;;;;;;10.38;7.70;;;20.60;61.40;;;;;;5051756;28;20029;-76
2022/05/09 04:22:08;;;;;;;10.93;8.93;;;20.60;61.50;;;;;;5051338;28;20109;-76
2022/05/09 04:24:34;;;;;;;9.25;7.75;;;20.60;61.70;;;;;;5051363;28;20043;-76
2022/05/09 04:27:01;;;;;;;9.20;7.40;;;20.90;61.20;;;;;;5033445;28;20115;-77
2022/05/09 04:29:27;;;;;;;9.07;7.43;;;21.00;61.00;;;;;;5052825;28;20082;-78
2022/05/09 04:31:53;;;;;;;8.73;7.18;;;21.10;61.10;;;;;;5056256;28;20041;-76
2022/05/09 04:34:19;;;;;;;10.93;7.88;;;21.20;60.90;;;;;;5055937;28;20021;-76
2022/05/09 04:36:45;;;;;;;10.52;8.43;;;21.40;60.60;;;;;;5055072;28;20115;-77
2022/05/09 04:39:11;;;;;;;12.18;8.20;;;21.40;60.50;;;;;;5054812;28;20119;-77
2022/05/09 04:41:37;;;;;;;13.68;7.85;;;21.60;60.20;;;;;;5055754;28;20040;-77
2022/05/09 04:44:05;;;;;;;10.43;7.70;;;21.90;59.90;;;;;;5051177;28;20024;-81
2022/05/09 04:46:33;;;;;;;9.13;8.00;;;22.10;59.60;;;;;;5054696;28;20541;-77
2022/05/09 04:48:58;;;;;;;10.00;7.82;;;22.30;59.10;;;;;;5055720;28;20047;-77
2022/05/09 04:51:24;;;;;;;9.68;6.88;;;22.40;58.70;;;;;;5037062;28;20037;-77
2022/05/09 04:53:50;;;;;;;10.02;6.95;;;22.40;59.10;;;;;;5046463;28;20029;-77
2022/05/09 04:56:17;;;;;;;9.85;7.95;;;22.30;59.50;;;;;;5055536;28;20079;-77
2022/05/09 04:58:43;;;;;;;14.63;7.82;;;22.30;59.60;;;;;;5055630;28;20025;-77
2022/05/09 05:01:10;;;;;;;11.32;7.75;;;22.50;59.50;;;;;;5033930;28;20033;-77
2022/05/09 05:03:35;;;;;;;9.52;7.55;;;22.50;59.70;;;;;;5052940;28;20017;-77
2022/05/09 05:06:03;;;;;;;9.18;6.78;;;22.70;59.50;;;;;;5054443;28;20036;-76
2022/05/09 05:08:33;;;;;;;8.75;6.05;;;22.90;59.50;;;;;;5053875;28;20028;-78
2022/05/09 05:11:03;;;;;;;7.10;6.07;;;23.00;57.80;;;;;;5052556;28;20126;-79
2022/05/09 05:13:28;;;;;;;8.50;6.30;;;23.10;56.60;;;;;;5054105;28;20036;-78
2022/05/09 05:15:55;;;;;;;8.80;5.97;;;23.30;56.20;;;;;;5054366;28;20282;-76
2022/05/09 05:18:30;;;;;;;6.78;5.88;;;23.30;56.00;;;;;;5037806;28;20037;-78
2022/05/09 05:20:56;;;;;;;15.18;6.53;;;23.40;56.80;;;;;;5051831;28;20068;-77
2022/05/09 05:23:22;;;;;;;7.32;5.80;;;23.50;56.30;;;;;;5034387;28;20185;-78
2022/05/09 05:25:48;;;;;;;8.95;5.60;;;23.50;55.70;;;;;;5041140;28;20021;-94
2022/05/09 05:28:15;;;;;;;8.75;5.78;;;22.90;57.40;;;;;;5035916;28;20047;-88
2022/05/09 05:30:42;;;;;;;6.82;5.40;;;23.00;56.50;;;;;;5052863;28;20029;-78
2022/05/09 05:33:07;;;;;;;5.95;5.28;;;22.90;56.30;;;;;;5053387;28;20091;-78
2022/05/09 05:35:33;;;;;;;6.97;5.30;;;23.00;56.90;;;;;;5054312;28;20049;-79
2022/05/09 05:37:59;;;;;;;6.70;5.53;;;22.90;57.20;;;;;;5055051;28;20033;-78
2022/05/09 05:40:25;;;;;;;7.15;4.95;;;22.80;57.70;;;;;;4690292;28;10000047;-79
2022/05/09 05:42:54;;;;;;;7.97;5.03;;;22.60;57.00;;;;;;5032110;28;20032;-78
2022/05/09 05:45:22;;;;;;;7.38;5.22;;;21.20;60.20;;;;;;5032100;28;20032;-78
2022/05/09 05:47:48;;;;;;;8.77;5.35;;;21.40;60.60;;;;;;5030073;28;20032;-82
2022/05/09 05:50:16;;;;;;;7.55;5.85;;;21.40;60.50;;;;;;5030517;28;20021;-78
2022/05/09 05:52:42;;;;;;;6.40;5.45;;;21.50;61.20;;;;;;5044308;28;20059;-79
2022/05/09 05:55:09;;;;;;;7.28;5.30;;;22.40;59.50;;;;;;5051647;28;20025;-84
2022/05/09 05:57:40;;;;;;;6.43;5.07;;;23.20;58.10;;;;;;5034743;28;20029;-94
2022/05/09 06:00:13;;;;;;;7.00;5.43;;;23.80;57.30;;;;;;5050114;28;20040;-77
2022/05/09 06:02:39;;;;;;;7.53;5.70;;;24.50;55.10;;;;;;5034164;28;20017;-77
2022/05/09 06:05:09;;;;;;;6.10;4.70;;;24.90;54.70;;;;;;5034342;28;20033;-78
2022/05/09 06:07:35;;;;;;;6.10;4.72;;;25.10;53.70;;;;;;5035051;28;20079;-81
2022/05/09 06:10:02;;;;;;;7.15;5.75;;;25.10;53.60;;;;;;5035229;28;20037;-78
2022/05/09 06:12:28;;;;;;;5.95;4.95;;;25.10;54.80;;;;;;5049519;28;20102;-78
2022/05/09 06:17:38;;;;;;;7.03;5.57;;;25.30;55.10;;;;;;5042395;28;20051;-90
2022/05/09 06:20:06;;;;;;;6.22;5.00;;;25.50;54.40;;;;;;5052131;28;20021;-85
2022/05/09 06:22:32;;;;;;;5.93;4.65;;;25.80;54.30;;;;;;5025721;28;20025;-80
2022/05/09 06:24:59;;;;;;;6.22;5.07;;;25.60;53.80;;;;;;5022994;28;20056;-77
2022/05/09 06:27:25;;;;;;;7.18;4.78;;;25.60;54.40;;;;;;5020667;28;20498;-79
2022/05/09 06:29:51;;;;;;;6.05;5.03;;;25.20;53.80;;;;;;5018772;28;20033;-91
2022/05/09 06:32:18;;;;;;;6.47;4.90;;;25.20;54.60;;;;;;5035348;28;20103;-79
2022/05/09 06:34:45;;;;;;;6.47;4.88;;;25.40;53.20;;;;;;5039215;28;20017;-85
2022/05/09 06:37:11;;;;;;;6.15;4.55;;;25.40;53.40;;;;;;5027390;28;20059;-77
2022/05/09 06:39:37;;;;;;;5.90;4.70;;;25.10;53.10;;;;;;5032592;28;20037;-80
2022/05/09 06:42:07;;;;;;;6.43;5.35;;;24.90;54.30;;;;;;5041866;28;20079;-80
2022/05/09 06:44:35;;;;;;;6.40;5.10;;;25.30;53.80;;;;;;5031726;28;20033;-79
2022/05/09 06:47:02;;;;;;;8.88;5.13;;;25.90;53.20;;;;;;5034198;28;20549;-80
2022/05/09 06:49:28;;;;;;;5.60;4.90;;;24.40;53.00;;;;;;5033590;28;20076;-84
2022/05/09 06:51:54;;;;;;;7.97;4.80;;;24.70;54.90;;;;;;5032922;28;20530;-77
2022/05/09 06:54:21;;;;;;;5.90;4.70;;;25.20;54.10;;;;;;5051254;28;20025;-82
2022/05/09 06:56:48;;;;;;;7.00;4.80;;;25.60;52.90;;;;;;5031855;28;20029;-78
2022/05/09 06:59:14;;;;;;;8.90;5.30;;;25.70;53.20;;;;;;5033057;28;20025;-80
2022/05/09 07:01:39;;;;;;;9.48;5.47;;;26.00;52.60;;;;;;5033951;28;20032;-78
2022/05/09 07:04:05;;;;;;;6.85;5.00;;;26.40;51.60;;;;;;5049810;28;20083;-79
2022/05/09 07:06:31;;;;;;;6.13;4.50;;;26.70;51.30;;;;;;5049767;28;20033;-83
2022/05/09 07:08:57;;;;;;;7.82;4.95;;;26.40;52.30;;;;;;5050170;28;20032;-83
2022/05/09 07:11:22;;;;;;;6.35;4.78;;;26.50;51.80;;;;;;5035878;28;20127;-85
2022/05/09 07:13:49;;;;;;;5.53;4.50;;;26.80;51.80;;;;;;5046523;28;20048;-85
2022/05/09 07:16:14;;;;;;;6.47;5.10;;;27.00;51.70;;;;;;5048268;28;20107;-87
2022/05/09 07:18:41;;;;;;;5.25;4.63;;;26.90;51.50;;;;;;5033438;28;20803;-83
2022/05/09 07:21:08;;;;;;;8.05;4.70;;;26.70;51.40;;;;;;5036070;28;20037;-78
2022/05/09 07:23:34;;;;;;;6.13;5.28;;;26.70;51.20;;;;;;5036000;28;20028;-80
2022/05/09 07:26:00;;;;;;;6.80;4.63;;;26.90;51.40;;;;;;5053838;28;20116;-88
2022/05/09 07:28:28;;;;;;;6.88;4.68;;;26.70;51.00;;;;;;5036140;28;20028;-79
2022/05/09 07:30:56;;;;;;;7.18;4.80;;;26.80;51.60;;;;;;5036101;28;20033;-78
2022/05/09 07:33:24;;;;;;;6.32;4.88;;;25.80;51.60;;;;;;5036827;28;20539;-87
2022/05/09 07:35:50;;;;;;;7.07;5.03;;;25.30;54.30;;;;;;5033967;28;20494;-78
2022/05/09 07:38:16;;;;;;;8.25;5.10;;;25.50;54.50;;;;;;5035022;28;20124;-88
2022/05/09 07:40:44;;;;;;;7.93;4.97;;;26.00;54.10;;;;;;5053048;28;20030;-80
2022/05/09 07:43:14;;;;;;;10.55;5.65;;;26.60;52.20;;;;;;5052845;28;20020;-81
2022/05/09 07:45:42;;;;;;;8.63;4.95;;;26.70;51.80;;;;;;5035794;28;20391;-86
2022/05/09 07:48:09;;;;;;;8.68;4.95;;;25.10;53.30;;;;;;5053297;28;20060;-86
2022/05/09 07:50:35;;;;;;;6.88;5.00;;;25.30;53.10;;;;;;5048858;28;20082;-81
2022/05/09 07:53:09;;;;;;;7.20;4.57;;;26.00;52.50;;;;;;5031675;28;21547;-81
2022/05/09 07:55:35;;;;;;;6.45;4.68;;;26.60;52.10;;;;;;5035478;28;20025;-81
2022/05/09 07:58:01;;;;;;;18.15;5.63;;;27.00;50.40;;;;;;5031874;28;20059;-81
2022/05/09 08:00:27;;;;;;;9.45;5.22;;;27.20;50.80;;;;;;5034767;28;20115;-81
2022/05/09 08:02:53;;;;;;;6.03;4.50;;;27.60;51.60;;;;;;5053013;28;20484;-76
2022/05/09 08:05:19;;;;;;;7.85;5.10;;;27.50;48.90;;;;;;5049939;28;20028;-83
2022/05/09 08:07:45;;;;;;;7.07;4.70;;;27.60;50.50;;;;;;5052030;28;20029;-77
2022/05/09 08:10:12;;;;;;;5.90;4.90;;;27.80;49.60;;;;;;5050438;28;20027;-76
2022/05/09 08:12:39;;;;;;;6.75;4.95;;;28.20;49.20;;;;;;5029184;28;20034;-85
2022/05/09 08:15:07;;;;;;;7.55;4.50;;;28.30;49.60;;;;;;5032824;28;20041;-81
2022/05/09 08:17:32;;;;;;;6.50;4.57;;;28.40;49.20;;;;;;5019134;28;20025;-80
2022/05/09 08:19:59;;;;;;;5.97;4.70;;;27.20;50.60;;;;;;5052430;28;20509;-84
2022/05/09 08:22:28;;;;;;;7.15;4.63;;;27.20;51.60;;;;;;5052899;28;20029;-88
2022/05/09 08:24:58;;;;;;;7.40;4.85;;;27.00;51.60;;;;;;5035155;28;20543;-79
2022/05/09 08:27:26;;;;;;;6.17;4.97;;;27.10;52.10;;;;;;5034870;28;20025;-89
2022/05/09 08:29:56;;;;;;;7.22;4.95;;;27.80;53.10;;;;;;5034744;28;20031;-86
2022/05/09 08:32:26;;;;;;;6.50;4.93;;;28.00;50.70;;;;;;5033085;28;20120;-79
2022/05/09 08:34:52;;;;;;;7.85;5.38;;;28.30;51.20;;;;;;5036528;28;20021;-76
2022/05/09 08:37:30;;;;;;;8.63;4.93;;;28.60;50.10;;;;;;5023509;28;20071;-84
2022/05/09 08:39:56;;;;;;;9.52;5.32;;;28.60;50.70;;;;;;5019463;28;20039;-79
2022/05/09 08:42:42;;;;;;;9.05;5.03;;;28.70;52.20;;;;;;5052540;28;20025;-76
2022/05/09 08:45:19;;;;;;;6.75;5.07;;;28.90;49.60;;;;;;5033211;28;20029;-77
2022/05/09 08:48:09;;;;;;;9.02;5.05;;;28.70;51.40;;;;;;5035154;28;20472;-80
2022/05/09 08:51:00;;;;;;;8.27;5.38;;;28.10;51.90;;;;;;5032216;28;20396;-80
2022/05/09 08:53:27;;;;;;;5.90;5.13;;;28.40;51.60;;;;;;5032551;28;20362;-75
2022/05/09 08:55:56;;;;;;;8.07;5.05;;;28.70;51.20;;;;;;5032412;28;20456;-76
2022/05/09 08:58:37;;;;;;;5.55;4.70;;;29.30;51.10;;;;;;5025594;28;20029;-81
2022/05/09 09:01:16;;;;;;;10.90;5.20;;;29.40;50.80;;;;;;5032596;28;20048;-83
2022/05/09 09:03:49;;;;;;;7.43;4.88;;;29.40;50.10;;;;;;5032427;28;20108;-85
2022/05/09 09:06:41;;;;;;;7.78;5.30;;;29.50;52.30;;;;;;5032769;28;20028;-90
2022/05/09 09:09:44;;;;;;;6.32;4.72;;;29.40;50.40;;;;;;4694810;28;10000104;-80
2022/05/09 09:13:09;;;;;;;;;;;;;;;;;;;;;
2022/05/09 09:15:51;;;;;;;6.22;4.95;;;29.40;50.40;;;;;;4657868;28;20045;-81
2022/05/09 09:18:31;;;;;;;7.68;5.07;;;29.80;50.20;;;;;;4664366;28;10001458;-78
2022/05/09 09:21:06;;;;;;;7.05;5.30;;;29.70;49.90;;;;;;4997800;28;20089;-80
2022/05/09 09:24:00;;;;;;;5.80;4.63;;;29.60;49.60;;;;;;4979570;28;20058;-83
2022/05/09 09:27:01;;;;;;;8.60;4.95;;;29.00;50.10;;;;;;5007131;28;20046;-87
2022/05/09 09:29:48;;;;;;;11.95;6.03;;;28.80;51.50;;;;;;5001884;28;20642;-91
2022/05/09 09:32:20;;;;;;;7.55;4.82;;;28.80;52.50;;;;;;4991427;28;20038;-85
2022/05/09 09:35:04;;;;;;;5.70;5.00;;;28.80;51.40;;;;;;5008464;28;20061;-78
2022/05/09 09:37:33;;;;;;;6.35;5.10;;;29.10;50.10;;;;;;4994357;28;20033;-83
2022/05/09 09:39:59;;;;;;;6.28;4.80;;;29.00;51.30;;;;;;4993055;28;20832;-80
2022/05/09 09:42:25;;;;;;;8.15;5.25;;;28.90;50.00;;;;;;5005984;28;20125;-78
2022/05/09 09:44:53;;;;;;;7.03;5.10;;;28.90;48.90;;;;;;4987872;28;20026;-78
2022/05/09 09:47:19;;;;;;;6.70;4.90;;;29.20;49.10;;;;;;4992627;28;20045;-79
2022/05/09 09:49:48;;;;;;;6.70;4.88;;;29.60;48.70;;;;;;4991664;28;20128;-79
2022/05/09 09:52:21;;;;;;;7.85;5.50;;;30.10;47.20;;;;;;5027130;28;20123;-79
2022/05/09 09:55:07;;;;;;;8.23;5.45;;;30.00;45.50;;;;;;5037699;28;20063;-82
2022/05/09 09:57:36;;;;;;;6.53;5.32;;;29.90;45.60;;;;;;5019987;28;20128;-86
2022/05/09 10:00:19;;;;;;;6.53;5.30;;;30.00;47.00;;;;;;5043560;28;20419;-78
2022/05/09 10:02:47;;;;;;;9.02;6.75;;;30.10;47.80;;;;;;5051130;28;20090;-79
2022/05/09 10:05:16;;;;;;;5.90;5.03;;;30.10;46.20;;;;;;5032724;28;20040;-84
2022/05/09 10:07:45;;;;;;;5.82;4.78;;;30.10;46.60;;;;;;5028842;28;20033;-84
2022/05/09 10:10:23;;;;;;;7.50;5.68;;;30.20;46.10;;;;;;5033683;28;20027;-79
2022/05/09 10:12:52;;;;;;;8.35;5.13;;;30.20;45.10;;;;;;5046152;28;20124;-80
2022/05/09 10:15:29;;;;;;;8.23;6.65;;;30.30;47.30;;;;;;5019354;28;20029;-88
2022/05/09 10:17:56;;;;;;;73.40;51.50;;;30.40;45.90;;;;;;5029524;28;20489;-79
2022/05/09 10:20:39;;;;;;;12.73;8.23;;;30.60;46.80;;;;;;5051864;28;20548;-78
2022/05/09 10:26:28;;;;;;;153.05;88.07;;;30.60;46.90;;;;;;5034039;28;20052;-82
2022/05/09 10:28:57;;;;;;;14.80;8.63;;;30.80;46.60;;;;;;5032411;28;20103;-84
2022/05/09 10:31:31;;;;;;;67.28;37.50;;;30.90;46.50;;;;;;5034945;28;20037;-79
2022/05/09 10:34:17;;;;;;;22.17;14.35;;;31.00;46.90;;;;;;5036405;28;20040;-83
2022/05/09 10:37:02;;;;;;;82.20;59.70;;;31.00;46.80;;;;;;5054603;28;20040;-83
2022/05/09 10:39:39;;;;;;;12.43;10.23;;;30.90;47.40;;;;;;5036760;28;20085;-79
2022/05/09 10:42:09;;;;;;;9.80;7.15;;;31.00;45.80;;;;;;5035965;28;20021;-78
2022/05/09 10:44:43;;;;;;;6.82;4.78;;;31.10;46.90;;;;;;5054448;28;20481;-81
2022/05/09 10:47:24;;;;;;;10.45;7.72;;;31.10;46.60;;;;;;5053141;28;20067;-77
2022/05/09 10:50:19;;;;;;;9.57;7.15;;;30.80;46.10;;;;;;5054236;28;20072;-87
2022/05/09 10:53:20;;;;;;;16.60;10.70;;;30.10;46.40;;;;;;4973409;28;20114;-82
2022/05/09 10:56:11;;;;;;;6.18;4.32;;;29.50;45.80;;;;;;4973409;28;20031;-80
2022/05/09 10:58:50;;;;;;;7.85;4.43;;;29.50;45.60;;;;;;4958134;28;20110;-84
2022/05/09 11:01:39;;;;;;;7.95;5.72;;;29.00;45.70;;;;;;4973395;28;20204;-79
2022/05/09 11:04:05;;;;;;;7.90;4.07;;;29.00;46.30;;;;;;4973489;28;20515;-83
2022/05/09 11:06:50;;;;;;;7.30;3.70;;;28.50;46.40;;;;;;4972850;28;20031;-82
2022/05/09 11:09:16;;;;;;;9.02;4.53;;;28.20;46.70;;;;;;4971071;28;20039;-83
2022/05/09 11:12:06;;;;;;;6.00;3.70;;;28.00;47.10;;;;;;4972921;28;20081;-80
2022/05/09 11:14:38;;;;;;;;;;;28.10;46.50;;;;;;4973314;28;20027;-79
2022/05/09 11:17:21;;;;;;;6.00;3.80;;;28.10;47.00;;;;;;4972896;28;19906;-76
2022/05/09 11:20:26;;;;;;;11.60;7.22;;;28.20;47.60;;;;;;4973086;28;20031;-76
2022/05/09 11:23:32;;;;;;;5.15;4.15;;;28.80;47.80;;;;;;4915785;29;20127;-77
2022/05/09 11:26:17;;;;;;;9.00;4.32;;;28.90;46.90;;;;;;4898328;29;20032;-87
2022/05/09 11:29:15;;;;;;;8.35;4.10;;;28.90;47.40;;;;;;4907239;28;20046;-82
2022/05/09 11:32:03;;;;;;;5.25;4.03;;;29.00;46.90;;;;;;4934658;29;20047;-83
2022/05/09 11:34:52;;;;;;;5.95;3.92;;;29.00;46.30;;;;;;4933823;29;20491;-79
2022/05/09 11:37:51;;;;;;;7.57;4.20;;;29.00;47.30;;;;;;4934182;29;20107;-78
2022/05/09 11:40:31;;;;;;;7.10;4.10;;;29.30;47.40;;;;;;4933725;29;20038;-78
2022/05/09 11:43:27;;;;;;;4.88;4.07;;;29.70;46.90;;;;;;4934505;29;20032;-81
2022/05/09 11:46:23;;;;;;;9.55;4.25;;;29.30;46.80;;;;;;4934158;29;21208;-79
2022/05/09 11:49:19;;;;;;;9.73;4.18;;;29.10;47.60;;;;;;4906221;29;20043;-78
2022/05/09 11:51:47;;;;;;;5.63;3.70;;;29.30;47.20;;;;;;4914908;29;20044;-83
2022/05/09 11:54:19;;;;;;;8.50;3.67;;;29.70;48.00;;;;;;4915589;29;20040;-82
2022/05/09 11:56:55;;;;;;;5.72;3.90;;;30.00;46.80;;;;;;4920721;29;20038;-80
2022/05/09 11:59:22;;;;;;;5.50;3.90;;;30.40;46.20;;;;;;4948109;28;20039;-83
2022/05/09 12:02:37;;;;;;;7.80;3.70;;;30.50;46.60;;;;;;4956345;28;20090;-80
2022/05/09 12:05:25;;;;;;;5.63;3.55;;;30.50;44.60;;;;;;4986086;28;20038;-79
2022/05/09 12:08:04;;;;;;;6.90;3.58;;;30.10;45.60;;;;;;4986376;28;20383;-84
2022/05/09 12:10:35;;;;;;;5.65;3.72;;;30.20;46.30;;;;;;5034210;28;20476;-78
2022/05/09 12:13:04;;;;;;;;;;;30.80;45.80;;;;;;5033589;28;20124;-79
2022/05/09 12:15:33;;;;;;;5.22;3.30;;;30.90;44.10;;;;;;5033852;28;19912;-79
2022/05/09 12:18:00;;;;;;;6.78;3.42;;;30.90;44.90;;;;;;5032899;28;20017;-78
2022/05/09 12:20:37;;;;;;;5.88;4.10;;;31.10;43.90;;;;;;4698932;28;10000508;-82
2022/05/09 12:23:11;;;;;;;7.45;4.43;;;30.90;44.20;;;;;;5018720;28;20253;-77
2022/05/09 12:25:39;;;;;;;6.47;3.85;;;30.50;43.90;;;;;;5013704;28;20026;-81
2022/05/09 12:28:24;;;;;;;6.15;3.72;;;30.40;44.10;;;;;;5012171;28;20117;-80
2022/05/09 12:30:59;;;;;;;6.57;3.60;;;30.30;43.20;;;;;;5014818;28;20446;-85
2022/05/09 12:33:36;;;;;;;5.15;3.80;;;29.20;44.70;;;;;;5013282;28;20026;-79
2022/05/09 12:36:11;;;;;;;4.75;3.63;;;29.40;45.80;;;;;;5012762;28;20037;-78
2022/05/09 12:38:40;;;;;;;5.30;3.35;;;30.00;44.70;;;;;;5012049;28;20084;-80
2022/05/09 12:41:25;;;;;;;4.70;3.42;;;30.30;44.60;;;;;;5011805;28;20033;-82
2022/05/09 12:44:07;;;;;;;5.43;3.65;;;30.40;44.60;;;;;;5012937;28;20079;-80
2022/05/09 12:46:37;;;;;;;6.80;3.80;;;30.60;44.30;;;;;;5011693;28;20381;-85
2022/05/09 12:49:06;;;;;;;4.72;3.47;;;30.80;44.40;;;;;;5014849;28;20049;-81
2022/05/09 12:51:39;;;;;;;6.28;3.70;;;30.50;44.70;;;;;;5032040;28;20046;-80
2022/05/09 12:54:13;;;;;;;6.32;4.13;;;30.10;45.10;;;;;;5032136;28;20387;-82
2022/05/09 12:56:51;;;;;;;4.65;3.80;;;30.00;44.00;;;;;;5032489;28;20487;-87
2022/05/09 12:59:18;;;;;;;5.13;3.72;;;29.90;43.50;;;;;;5032728;28;20037;-91
2022/05/09 13:01:58;;;;;;;6.30;3.80;;;29.80;43.80;;;;;;5032615;28;20384;-80
2022/05/09 13:04:29;;;;;;;6.25;3.95;;;29.90;44.30;;;;;;5016899;28;20550;-88
2022/05/09 13:07:03;;;;;;;6.93;3.95;;;29.90;43.90;;;;;;5032489;28;20072;-90
2022/05/09 13:09:34;;;;;;;7.32;3.88;;;30.10;43.50;;;;;;5016337;28;20026;-83
2022/05/09 13:12:06;;;;;;;5.32;3.78;;;30.00;44.10;;;;;;5017152;28;20365;-92
2022/05/09 13:14:45;;;;;;;6.13;3.97;;;30.10;43.70;;;;;;5032084;28;20366;-80
2022/05/09 13:17:19;;;;;;;5.60;3.80;;;30.70;43.90;;;;;;5016780;28;20022;-81
2022/05/09 13:19:49;;;;;;;6.25;3.45;;;30.90;42.60;;;;;;5017046;28;20022;-80